sensor_id;sensor_type;location;lat;lon;timestamp;P1;durP1;ratioP1;P2;durP2;ratioP2
17259;SDS011;8746;49.230;9.220;2023-03-01T00:01:26;11.23;;;7.27;;
17259;SDS011;8746;49.230;9.220;2023-03-01T00:03:53;10.90;;;7.70;;
17259;SDS011;8746;49.230;9.220;2023-03-01T00:06:19;11.87;;;8.50;;
17259;SDS011;8746;49.230;9.220;2023-03-01T00:08:45;12.53;;;9.37;;
17259;SDS011;8746;49.230;9.220;2023-03-01T00:11:14;9.90;;;7.03;;
17259;SDS011;8746;49.230;9.220;2023-03-01T00:13:43;9.37;;;6.93;;
17259;SDS011;8746;49.230;9.220;2023-03-01T00:16:11;14.80;;;9.70;;
17259;SDS011;8746;49.230;9.220;2023-03-01T00:18:38;11.90;;;8.77;;
17259;SDS011;8746;49.230;9.220;2023-03-01T00:21:03;13.00;;;9.07;;
17259;SDS011;8746;49.230;9.220;2023-03-01T00:23:29;13.43;;;9.20;;
17259;SDS011;8746;49.230;9.220;2023-03-01T00:25:54;13.57;;;9.83;;
17259;SDS011;8746;49.230;9.220;2023-03-01T00:28:20;13.43;;;8.47;;
17259;SDS011;8746;49.230;9.220;2023-03-01T00:30:46;14.13;;;9.67;;
17259;SDS011;8746;49.230;9.220;2023-03-01T00:33:12;12.40;;;8.97;;
17259;SDS011;8746;49.230;9.220;2023-03-01T00:35:38;12.93;;;9.37;;
17259;SDS011;8746;49.230;9.220;2023-03-01T00:38:03;13.10;;;8.80;;
17259;SDS011;8746;49.230;9.220;2023-03-01T00:40:29;15.23;;;9.37;;
17259;SDS011;8746;49.230;9.220;2023-03-01T00:42:57;11.33;;;8.00;;
17259;SDS011;8746;49.230;9.220;2023-03-01T00:45:22;13.17;;;8.63;;
17259;SDS011;8746;49.230;9.220;2023-03-01T00:47:48;15.10;;;9.27;;
17259;SDS011;8746;49.230;9.220;2023-03-01T00:50:14;11.77;;;8.70;;
17259;SDS011;8746;49.230;9.220;2023-03-01T00:52:40;14.07;;;8.93;;
17259;SDS011;8746;49.230;9.220;2023-03-01T00:55:05;13.10;;;9.40;;
17259;SDS011;8746;49.230;9.220;2023-03-01T00:57:31;16.10;;;10.20;;
17259;SDS011;8746;49.230;9.220;2023-03-01T00:59:58;15.33;;;9.20;;
17259;SDS011;8746;49.230;9.220;2023-03-01T01:02:24;14.23;;;10.20;;
17259;SDS011;8746;49.230;9.220;2023-03-01T01:04:50;12.90;;;9.33;;
17259;SDS011;8746;49.230;9.220;2023-03-01T01:07:16;15.37;;;10.43;;
17259;SDS011;8746;49.230;9.220;2023-03-01T01:09:42;15.63;;;10.40;;
17259;SDS011;8746;49.230;9.220;2023-03-01T01:12:08;15.90;;;10.47;;
17259;SDS011;8746;49.230;9.220;2023-03-01T01:14:33;14.97;;;9.53;;
17259;SDS011;8746;49.230;9.220;2023-03-01T01:16:59;13.30;;;9.43;;
17259;SDS011;8746;49.230;9.220;2023-03-01T01:19:25;13.23;;;9.17;;
17259;SDS011;8746;49.230;9.220;2023-03-01T01:21:51;13.17;;;9.33;;
17259;SDS011;8746;49.230;9.220;2023-03-01T01:24:17;16.77;;;9.77;;
17259;SDS011;8746;49.230;9.220;2023-03-01T01:26:43;15.10;;;9.83;;
17259;SDS011;8746;49.230;9.220;2023-03-01T01:29:09;14.80;;;9.87;;
17259;SDS011;8746;49.230;9.220;2023-03-01T01:31:36;15.47;;;9.70;;
17259;SDS011;8746;49.230;9.220;2023-03-01T01:34:03;14.57;;;8.57;;
17259;SDS011;8746;49.230;9.220;2023-03-01T01:36:31;16.83;;;10.10;;
17259;SDS011;8746;49.230;9.220;2023-03-01T01:38:57;15.33;;;9.80;;
17259;SDS011;8746;49.230;9.220;2023-03-01T01:41:23;14.57;;;9.67;;
17259;SDS011;8746;49.230;9.220;2023-03-01T01:44:09;13.97;;;10.30;;
17259;SDS011;8746;49.230;9.220;2023-03-01T01:46:44;15.67;;;10.00;;
17259;SDS011;8746;49.230;9.220;2023-03-01T01:52:00;13.03;;;9.43;;
17259;SDS011;8746;49.230;9.220;2023-03-01T01:54:37;13.57;;;9.57;;
17259;SDS011;8746;49.230;9.220;2023-03-01T01:57:07;14.63;;;9.83;;
17259;SDS011;8746;49.230;9.220;2023-03-01T01:59:37;15.27;;;9.87;;
17259;SDS011;8746;49.230;9.220;2023-03-01T02:02:06;14.70;;;10.10;;
17259;SDS011;8746;49.230;9.220;2023-03-01T02:04:31;15.53;;;10.30;;
17259;SDS011;8746;49.230;9.220;2023-03-01T02:06:58;15.13;;;10.10;;
17259;SDS011;8746;49.230;9.220;2023-03-01T02:09:28;15.70;;;10.67;;
17259;SDS011;8746;49.230;9.220;2023-03-01T02:11:55;18.03;;;11.53;;
17259;SDS011;8746;49.230;9.220;2023-03-01T02:14:20;17.07;;;11.20;;
17259;SDS011;8746;49.230;9.220;2023-03-01T02:16:46;15.77;;;11.20;;
17259;SDS011;8746;49.230;9.220;2023-03-01T02:19:14;16.83;;;10.97;;
17259;SDS011;8746;49.230;9.220;2023-03-01T02:22:07;16.23;;;9.97;;
17259;SDS011;8746;49.230;9.220;2023-03-01T02:30:23;15.53;;;11.40;;
17259;SDS011;8746;49.230;9.220;2023-03-01T02:32:52;15.80;;;10.80;;
17259;SDS011;8746;49.230;9.220;2023-03-01T02:35:19;16.87;;;11.47;;
17259;SDS011;8746;49.230;9.220;2023-03-01T02:37:46;17.13;;;11.10;;
17259;SDS011;8746;49.230;9.220;2023-03-01T02:40:16;15.90;;;10.90;;
17259;SDS011;8746;49.230;9.220;2023-03-01T02:42:46;15.07;;;11.07;;
17259;SDS011;8746;49.230;9.220;2023-03-01T02:45:16;18.47;;;11.47;;
17259;SDS011;8746;49.230;9.220;2023-03-01T02:47:42;16.93;;;11.33;;
17259;SDS011;8746;49.230;9.220;2023-03-01T02:55:41;15.97;;;10.77;;
17259;SDS011;8746;49.230;9.220;2023-03-01T02:58:07;16.80;;;10.80;;
17259;SDS011;8746;49.230;9.220;2023-03-01T03:00:37;16.73;;;11.03;;
17259;SDS011;8746;49.230;9.220;2023-03-01T03:03:09;15.57;;;11.00;;
17259;SDS011;8746;49.230;9.220;2023-03-01T03:05:35;15.90;;;11.07;;
17259;SDS011;8746;49.230;9.220;2023-03-01T03:08:01;15.17;;;10.73;;
17259;SDS011;8746;49.230;9.220;2023-03-01T03:10:29;13.97;;;10.20;;
17259;SDS011;8746;49.230;9.220;2023-03-01T03:13:00;17.07;;;10.33;;
17259;SDS011;8746;49.230;9.220;2023-03-01T03:15:33;16.90;;;11.10;;
17259;SDS011;8746;49.230;9.220;2023-03-01T03:18:04;17.73;;;10.27;;
17259;SDS011;8746;49.230;9.220;2023-03-01T03:20:31;13.90;;;10.07;;
17259;SDS011;8746;49.230;9.220;2023-03-01T03:22:57;15.83;;;11.27;;
17259;SDS011;8746;49.230;9.220;2023-03-01T03:25:23;17.87;;;11.00;;
17259;SDS011;8746;49.230;9.220;2023-03-01T03:27:49;15.47;;;11.00;;
17259;SDS011;8746;49.230;9.220;2023-03-01T03:30:22;16.30;;;11.63;;
17259;SDS011;8746;49.230;9.220;2023-03-01T03:32:49;17.97;;;11.43;;
17259;SDS011;8746;49.230;9.220;2023-03-01T03:35:25;17.90;;;10.97;;
17259;SDS011;8746;49.230;9.220;2023-03-01T03:37:53;17.30;;;11.87;;
17259;SDS011;8746;49.230;9.220;2023-03-01T03:43:04;19.17;;;12.47;;
17259;SDS011;8746;49.230;9.220;2023-03-01T03:45:31;19.93;;;11.73;;
17259;SDS011;8746;49.230;9.220;2023-03-01T03:47:58;20.03;;;12.13;;
17259;SDS011;8746;49.230;9.220;2023-03-01T03:50:24;16.67;;;11.83;;
17259;SDS011;8746;49.230;9.220;2023-03-01T03:52:49;18.40;;;11.90;;
17259;SDS011;8746;49.230;9.220;2023-03-01T03:55:15;17.67;;;11.50;;
17259;SDS011;8746;49.230;9.220;2023-03-01T03:57:44;18.80;;;11.93;;
17259;SDS011;8746;49.230;9.220;2023-03-01T04:00:16;16.73;;;11.17;;
17259;SDS011;8746;49.230;9.220;2023-03-01T04:02:44;18.63;;;12.03;;
17259;SDS011;8746;49.230;9.220;2023-03-01T04:05:10;18.53;;;11.60;;
17259;SDS011;8746;49.230;9.220;2023-03-01T04:07:37;18.80;;;11.27;;
17259;SDS011;8746;49.230;9.220;2023-03-01T04:10:06;18.80;;;12.00;;
17259;SDS011;8746;49.230;9.220;2023-03-01T04:12:35;18.63;;;11.60;;
17259;SDS011;8746;49.230;9.220;2023-03-01T04:15:01;18.00;;;11.83;;
17259;SDS011;8746;49.230;9.220;2023-03-01T04:17:37;18.77;;;12.13;;
17259;SDS011;8746;49.230;9.220;2023-03-01T04:20:04;16.67;;;11.80;;
17259;SDS011;8746;49.230;9.220;2023-03-01T04:22:30;19.20;;;12.07;;
17259;SDS011;8746;49.230;9.220;2023-03-01T04:24:56;16.97;;;11.50;;
17259;SDS011;8746;49.230;9.220;2023-03-01T04:27:22;15.87;;;11.40;;
17259;SDS011;8746;49.230;9.220;2023-03-01T04:29:47;18.10;;;11.17;;
17259;SDS011;8746;49.230;9.220;2023-03-01T04:32:13;16.53;;;11.60;;
17259;SDS011;8746;49.230;9.220;2023-03-01T04:34:41;18.50;;;11.67;;
17259;SDS011;8746;49.230;9.220;2023-03-01T04:37:06;17.63;;;11.40;;
17259;SDS011;8746;49.230;9.220;2023-03-01T04:39:31;16.80;;;11.17;;
17259;SDS011;8746;49.230;9.220;2023-03-01T04:41:57;19.20;;;12.17;;
17259;SDS011;8746;49.230;9.220;2023-03-01T04:44:22;19.47;;;11.93;;
17259;SDS011;8746;49.230;9.220;2023-03-01T04:46:48;20.53;;;12.47;;
17259;SDS011;8746;49.230;9.220;2023-03-01T04:49:15;16.60;;;9.90;;
17259;SDS011;8746;49.230;9.220;2023-03-01T04:51:41;16.33;;;10.30;;
17259;SDS011;8746;49.230;9.220;2023-03-01T04:54:06;16.53;;;11.70;;
17259;SDS011;8746;49.230;9.220;2023-03-01T04:56:33;17.57;;;12.03;;
17259;SDS011;8746;49.230;9.220;2023-03-01T04:58:59;17.40;;;11.60;;
17259;SDS011;8746;49.230;9.220;2023-03-01T05:01:25;16.80;;;11.13;;
17259;SDS011;8746;49.230;9.220;2023-03-01T05:03:50;18.60;;;11.47;;
17259;SDS011;8746;49.230;9.220;2023-03-01T05:06:17;18.17;;;11.63;;
17259;SDS011;8746;49.230;9.220;2023-03-01T05:08:43;17.03;;;11.70;;
17259;SDS011;8746;49.230;9.220;2023-03-01T05:11:09;17.73;;;11.77;;
17259;SDS011;8746;49.230;9.220;2023-03-01T05:13:35;15.50;;;10.80;;
17259;SDS011;8746;49.230;9.220;2023-03-01T05:16:02;19.30;;;12.27;;
17259;SDS011;8746;49.230;9.220;2023-03-01T05:18:29;17.80;;;11.77;;
17259;SDS011;8746;49.230;9.220;2023-03-01T05:21:00;18.43;;;11.17;;
17259;SDS011;8746;49.230;9.220;2023-03-01T05:23:29;19.43;;;12.20;;
17259;SDS011;8746;49.230;9.220;2023-03-01T05:25:57;17.77;;;11.97;;
17259;SDS011;8746;49.230;9.220;2023-03-01T05:28:24;17.50;;;10.73;;
17259;SDS011;8746;49.230;9.220;2023-03-01T05:30:50;19.73;;;12.17;;
17259;SDS011;8746;49.230;9.220;2023-03-01T05:33:16;16.90;;;11.70;;
17259;SDS011;8746;49.230;9.220;2023-03-01T05:35:43;17.57;;;12.03;;
17259;SDS011;8746;49.230;9.220;2023-03-01T05:38:10;17.70;;;12.07;;
17259;SDS011;8746;49.230;9.220;2023-03-01T05:40:38;16.87;;;11.23;;
17259;SDS011;8746;49.230;9.220;2023-03-01T05:43:03;20.53;;;12.30;;
17259;SDS011;8746;49.230;9.220;2023-03-01T05:45:30;16.93;;;11.43;;
17259;SDS011;8746;49.230;9.220;2023-03-01T05:47:57;18.23;;;11.63;;
17259;SDS011;8746;49.230;9.220;2023-03-01T05:50:27;15.40;;;10.20;;
17259;SDS011;8746;49.230;9.220;2023-03-01T05:52:58;17.83;;;11.93;;
17259;SDS011;8746;49.230;9.220;2023-03-01T05:55:25;20.70;;;12.37;;
17259;SDS011;8746;49.230;9.220;2023-03-01T05:57:52;18.13;;;12.10;;
17259;SDS011;8746;49.230;9.220;2023-03-01T06:00:18;18.87;;;11.43;;
17259;SDS011;8746;49.230;9.220;2023-03-01T06:02:47;19.30;;;12.40;;
17259;SDS011;8746;49.230;9.220;2023-03-01T06:05:13;19.47;;;12.43;;
17259;SDS011;8746;49.230;9.220;2023-03-01T06:07:38;19.43;;;12.93;;
17259;SDS011;8746;49.230;9.220;2023-03-01T06:10:05;18.60;;;12.30;;
17259;SDS011;8746;49.230;9.220;2023-03-01T06:12:32;18.97;;;12.43;;
17259;SDS011;8746;49.230;9.220;2023-03-01T06:14:58;20.63;;;11.97;;
17259;SDS011;8746;49.230;9.220;2023-03-01T06:17:24;19.57;;;12.63;;
17259;SDS011;8746;49.230;9.220;2023-03-01T06:19:49;21.87;;;12.43;;
17259;SDS011;8746;49.230;9.220;2023-03-01T06:22:15;18.90;;;11.93;;
17259;SDS011;8746;49.230;9.220;2023-03-01T06:24:40;20.53;;;12.70;;
17259;SDS011;8746;49.230;9.220;2023-03-01T06:27:05;18.30;;;12.17;;
17259;SDS011;8746;49.230;9.220;2023-03-01T06:29:31;22.53;;;12.77;;
17259;SDS011;8746;49.230;9.220;2023-03-01T06:31:56;20.03;;;12.33;;
17259;SDS011;8746;49.230;9.220;2023-03-01T06:34:21;19.93;;;13.07;;
17259;SDS011;8746;49.230;9.220;2023-03-01T06:36:47;18.33;;;11.53;;
17259;SDS011;8746;49.230;9.220;2023-03-01T06:39:12;17.00;;;11.73;;
17259;SDS011;8746;49.230;9.220;2023-03-01T06:41:38;18.80;;;12.27;;
17259;SDS011;8746;49.230;9.220;2023-03-01T06:44:03;20.40;;;12.80;;
17259;SDS011;8746;49.230;9.220;2023-03-01T06:46:29;22.07;;;13.43;;
17259;SDS011;8746;49.230;9.220;2023-03-01T06:48:54;20.00;;;13.83;;
17259;SDS011;8746;49.230;9.220;2023-03-01T06:51:19;18.10;;;12.63;;
17259;SDS011;8746;49.230;9.220;2023-03-01T06:53:45;20.73;;;12.60;;
17259;SDS011;8746;49.230;9.220;2023-03-01T06:56:11;21.13;;;13.17;;
17259;SDS011;8746;49.230;9.220;2023-03-01T06:58:37;21.03;;;12.67;;
17259;SDS011;8746;49.230;9.220;2023-03-01T07:01:06;17.77;;;11.37;;
17259;SDS011;8746;49.230;9.220;2023-03-01T07:03:32;19.67;;;12.40;;
17259;SDS011;8746;49.230;9.220;2023-03-01T07:05:58;20.60;;;12.47;;
17259;SDS011;8746;49.230;9.220;2023-03-01T07:08:23;18.13;;;12.17;;
17259;SDS011;8746;49.230;9.220;2023-03-01T07:10:54;18.57;;;12.07;;
17259;SDS011;8746;49.230;9.220;2023-03-01T07:13:20;26.10;;;13.23;;
17259;SDS011;8746;49.230;9.220;2023-03-01T07:15:45;19.70;;;12.90;;
17259;SDS011;8746;49.230;9.220;2023-03-01T07:18:10;18.87;;;11.43;;
17259;SDS011;8746;49.230;9.220;2023-03-01T07:20:35;16.77;;;11.27;;
17259;SDS011;8746;49.230;9.220;2023-03-01T07:23:01;19.30;;;12.67;;
17259;SDS011;8746;49.230;9.220;2023-03-01T07:25:26;20.17;;;13.37;;
17259;SDS011;8746;49.230;9.220;2023-03-01T07:27:52;16.77;;;11.07;;
17259;SDS011;8746;49.230;9.220;2023-03-01T07:30:18;19.33;;;12.57;;
17259;SDS011;8746;49.230;9.220;2023-03-01T07:32:45;16.47;;;12.07;;
17259;SDS011;8746;49.230;9.220;2023-03-01T07:35:10;18.77;;;12.43;;
17259;SDS011;8746;49.230;9.220;2023-03-01T07:37:36;19.93;;;12.80;;
17259;SDS011;8746;49.230;9.220;2023-03-01T07:40:01;19.57;;;11.93;;
17259;SDS011;8746;49.230;9.220;2023-03-01T07:42:27;21.80;;;13.03;;
17259;SDS011;8746;49.230;9.220;2023-03-01T07:44:52;19.40;;;12.80;;
17259;SDS011;8746;49.230;9.220;2023-03-01T07:47:18;17.93;;;12.97;;
17259;SDS011;8746;49.230;9.220;2023-03-01T07:49:43;19.53;;;12.50;;
17259;SDS011;8746;49.230;9.220;2023-03-01T07:52:11;18.57;;;12.63;;
17259;SDS011;8746;49.230;9.220;2023-03-01T07:54:37;20.23;;;12.83;;
17259;SDS011;8746;49.230;9.220;2023-03-01T07:57:03;19.60;;;12.43;;
17259;SDS011;8746;49.230;9.220;2023-03-01T07:59:29;17.37;;;11.97;;
17259;SDS011;8746;49.230;9.220;2023-03-01T08:01:56;19.60;;;12.00;;
17259;SDS011;8746;49.230;9.220;2023-03-01T08:04:22;15.77;;;11.20;;
17259;SDS011;8746;49.230;9.220;2023-03-01T08:06:49;18.10;;;12.40;;
17259;SDS011;8746;49.230;9.220;2023-03-01T08:09:15;16.43;;;8.90;;
17259;SDS011;8746;49.230;9.220;2023-03-01T08:11:40;18.00;;;12.20;;
17259;SDS011;8746;49.230;9.220;2023-03-01T08:14:06;19.80;;;12.80;;
17259;SDS011;8746;49.230;9.220;2023-03-01T08:16:31;17.63;;;11.40;;
17259;SDS011;8746;49.230;9.220;2023-03-01T08:19:02;19.00;;;11.90;;
17259;SDS011;8746;49.230;9.220;2023-03-01T08:21:28;19.40;;;13.20;;
17259;SDS011;8746;49.230;9.220;2023-03-01T08:23:54;19.47;;;11.73;;
17259;SDS011;8746;49.230;9.220;2023-03-01T08:26:20;17.43;;;11.30;;
17259;SDS011;8746;49.230;9.220;2023-03-01T08:28:46;17.90;;;12.90;;
17259;SDS011;8746;49.230;9.220;2023-03-01T08:31:14;20.57;;;12.63;;
17259;SDS011;8746;49.230;9.220;2023-03-01T08:33:43;18.07;;;11.23;;
17259;SDS011;8746;49.230;9.220;2023-03-01T08:36:08;16.43;;;10.43;;
17259;SDS011;8746;49.230;9.220;2023-03-01T08:38:34;19.50;;;12.13;;
17259;SDS011;8746;49.230;9.220;2023-03-01T08:41:00;19.03;;;12.33;;
17259;SDS011;8746;49.230;9.220;2023-03-01T08:43:27;17.30;;;11.33;;
17259;SDS011;8746;49.230;9.220;2023-03-01T08:45:52;10.30;;;7.33;;
17259;SDS011;8746;49.230;9.220;2023-03-01T08:48:17;17.90;;;12.10;;
17259;SDS011;8746;49.230;9.220;2023-03-01T08:50:43;14.37;;;9.70;;
17259;SDS011;8746;49.230;9.220;2023-03-01T08:53:08;20.53;;;12.37;;
17259;SDS011;8746;49.230;9.220;2023-03-01T08:55:33;14.53;;;10.17;;
17259;SDS011;8746;49.230;9.220;2023-03-01T08:57:58;18.87;;;12.80;;
17259;SDS011;8746;49.230;9.220;2023-03-01T09:00:24;13.07;;;8.53;;
17259;SDS011;8746;49.230;9.220;2023-03-01T09:02:50;18.57;;;10.87;;
17259;SDS011;8746;49.230;9.220;2023-03-01T09:05:15;16.10;;;11.67;;
17259;SDS011;8746;49.230;9.220;2023-03-01T09:07:40;13.60;;;9.67;;
17259;SDS011;8746;49.230;9.220;2023-03-01T09:10:06;16.90;;;11.37;;
17259;SDS011;8746;49.230;9.220;2023-03-01T09:12:31;15.77;;;10.17;;
17259;SDS011;8746;49.230;9.220;2023-03-01T09:14:57;17.60;;;12.33;;
17259;SDS011;8746;49.230;9.220;2023-03-01T09:17:22;16.40;;;11.50;;
17259;SDS011;8746;49.230;9.220;2023-03-01T09:19:48;17.97;;;11.13;;
17259;SDS011;8746;49.230;9.220;2023-03-01T09:22:13;21.07;;;13.37;;
17259;SDS011;8746;49.230;9.220;2023-03-01T09:24:39;18.77;;;12.70;;
17259;SDS011;8746;49.230;9.220;2023-03-01T09:27:05;17.80;;;12.50;;
17259;SDS011;8746;49.230;9.220;2023-03-01T09:29:33;16.87;;;11.87;;
17259;SDS011;8746;49.230;9.220;2023-03-01T09:32:00;17.00;;;12.43;;
17259;SDS011;8746;49.230;9.220;2023-03-01T09:34:26;15.13;;;10.47;;
17259;SDS011;8746;49.230;9.220;2023-03-01T09:36:51;18.37;;;12.67;;
17259;SDS011;8746;49.230;9.220;2023-03-01T09:39:17;18.47;;;12.90;;
17259;SDS011;8746;49.230;9.220;2023-03-01T09:47:03;21.57;;;13.93;;
17259;SDS011;8746;49.230;9.220;2023-03-01T09:49:30;16.77;;;12.03;;
17259;SDS011;8746;49.230;9.220;2023-03-01T09:54:51;17.57;;;12.63;;
17259;SDS011;8746;49.230;9.220;2023-03-01T10:02:41;17.67;;;12.70;;
17259;SDS011;8746;49.230;9.220;2023-03-01T10:10:37;19.10;;;13.40;;
17259;SDS011;8746;49.230;9.220;2023-03-01T10:16:18;18.70;;;13.37;;
17259;SDS011;8746;49.230;9.220;2023-03-01T10:18:51;17.90;;;12.73;;
17259;SDS011;8746;49.230;9.220;2023-03-01T10:21:20;17.00;;;12.97;;
17259;SDS011;8746;49.230;9.220;2023-03-01T10:23:45;18.30;;;13.40;;
17259;SDS011;8746;49.230;9.220;2023-03-01T10:31:23;16.50;;;12.93;;
17259;SDS011;8746;49.230;9.220;2023-03-01T10:33:53;18.67;;;13.23;;
17259;SDS011;8746;49.230;9.220;2023-03-01T10:36:20;19.20;;;14.03;;
17259;SDS011;8746;49.230;9.220;2023-03-01T10:38:48;17.57;;;12.47;;
17259;SDS011;8746;49.230;9.220;2023-03-01T10:41:22;17.33;;;13.43;;
17259;SDS011;8746;49.230;9.220;2023-03-01T10:43:49;16.90;;;12.77;;
17259;SDS011;8746;49.230;9.220;2023-03-01T10:51:47;17.37;;;13.40;;
17259;SDS011;8746;49.230;9.220;2023-03-01T10:54:22;16.80;;;13.43;;
17259;SDS011;8746;49.230;9.220;2023-03-01T10:56:53;18.70;;;13.73;;
17259;SDS011;8746;49.230;9.220;2023-03-01T10:59:34;17.40;;;13.67;;
17259;SDS011;8746;49.230;9.220;2023-03-01T11:04:27;16.33;;;12.27;;
17259;SDS011;8746;49.230;9.220;2023-03-01T11:06:57;18.00;;;13.83;;
17259;SDS011;8746;49.230;9.220;2023-03-01T11:09:24;19.10;;;14.33;;
17259;SDS011;8746;49.230;9.220;2023-03-01T11:11:53;18.77;;;13.67;;
17259;SDS011;8746;49.230;9.220;2023-03-01T11:14:23;17.97;;;12.93;;
17259;SDS011;8746;49.230;9.220;2023-03-01T11:17:11;18.27;;;13.57;;
17259;SDS011;8746;49.230;9.220;2023-03-01T11:19:42;16.67;;;12.97;;
17259;SDS011;8746;49.230;9.220;2023-03-01T11:22:12;16.83;;;13.57;;
17259;SDS011;8746;49.230;9.220;2023-03-01T11:24:43;17.37;;;13.37;;
17259;SDS011;8746;49.230;9.220;2023-03-01T11:27:33;17.53;;;13.23;;
17259;SDS011;8746;49.230;9.220;2023-03-01T11:30:01;17.00;;;13.20;;
17259;SDS011;8746;49.230;9.220;2023-03-01T11:32:45;16.07;;;12.97;;
17259;SDS011;8746;49.230;9.220;2023-03-01T11:35:26;18.07;;;13.20;;
17259;SDS011;8746;49.230;9.220;2023-03-01T11:40:26;17.37;;;13.27;;
17259;SDS011;8746;49.230;9.220;2023-03-01T11:45:24;18.23;;;12.73;;
17259;SDS011;8746;49.230;9.220;2023-03-01T11:48:01;17.17;;;12.63;;
17259;SDS011;8746;49.230;9.220;2023-03-01T11:50:46;16.97;;;12.63;;
17259;SDS011;8746;49.230;9.220;2023-03-01T11:55:57;19.67;;;13.53;;
17259;SDS011;8746;49.230;9.220;2023-03-01T11:58:52;19.27;;;13.40;;
17259;SDS011;8746;49.230;9.220;2023-03-01T12:23:26;17.57;;;12.37;;
17259;SDS011;8746;49.230;9.220;2023-03-01T12:26:10;20.87;;;12.00;;
17259;SDS011;8746;49.230;9.220;2023-03-01T12:48:23;15.40;;;11.73;;
17259;SDS011;8746;49.230;9.220;2023-03-01T12:51:17;18.40;;;12.83;;
17259;SDS011;8746;49.230;9.220;2023-03-01T12:53:49;15.77;;;10.73;;
17259;SDS011;8746;49.230;9.220;2023-03-01T12:56:19;16.40;;;10.90;;
17259;SDS011;8746;49.230;9.220;2023-03-01T13:01:36;18.67;;;12.30;;
17259;SDS011;8746;49.230;9.220;2023-03-01T13:04:36;15.53;;;11.53;;
17259;SDS011;8746;49.230;9.220;2023-03-01T13:17:48;16.80;;;12.30;;
17259;SDS011;8746;49.230;9.220;2023-03-01T13:20:24;14.83;;;11.47;;
17259;SDS011;8746;49.230;9.220;2023-03-01T13:22:59;14.70;;;11.93;;
17259;SDS011;8746;49.230;9.220;2023-03-01T13:25:42;18.13;;;12.47;;
17259;SDS011;8746;49.230;9.220;2023-03-01T13:28:40;16.17;;;11.87;;
17259;SDS011;8746;49.230;9.220;2023-03-01T13:33:45;15.77;;;11.93;;
17259;SDS011;8746;49.230;9.220;2023-03-01T13:36:45;15.67;;;11.07;;
17259;SDS011;8746;49.230;9.220;2023-03-01T13:39:00;16.60;;;11.43;;
17259;SDS011;8746;49.230;9.220;2023-03-01T13:46:52;17.53;;;12.53;;
17259;SDS011;8746;49.230;9.220;2023-03-01T13:49:25;16.60;;;11.70;;
17259;SDS011;8746;49.230;9.220;2023-03-01T13:51:54;15.63;;;11.53;;
17259;SDS011;8746;49.230;9.220;2023-03-01T13:54:25;14.20;;;11.27;;
17259;SDS011;8746;49.230;9.220;2023-03-01T13:56:54;17.67;;;12.50;;
17259;SDS011;8746;49.230;9.220;2023-03-01T13:59:21;17.63;;;12.67;;
17259;SDS011;8746;49.230;9.220;2023-03-01T14:04:24;16.37;;;11.27;;
17259;SDS011;8746;49.230;9.220;2023-03-01T14:07:08;16.77;;;12.10;;
17259;SDS011;8746;49.230;9.220;2023-03-01T14:10:04;13.93;;;11.60;;
17259;SDS011;8746;49.230;9.220;2023-03-01T14:13:17;14.50;;;11.13;;
17259;SDS011;8746;49.230;9.220;2023-03-01T14:20:50;13.80;;;10.70;;
17259;SDS011;8746;49.230;9.220;2023-03-01T14:23:18;16.30;;;11.53;;
17259;SDS011;8746;49.230;9.220;2023-03-01T14:25:50;16.43;;;12.60;;
17259;SDS011;8746;49.230;9.220;2023-03-01T14:28:19;16.57;;;11.73;;
17259;SDS011;8746;49.230;9.220;2023-03-01T14:30:51;17.13;;;12.40;;
17259;SDS011;8746;49.230;9.220;2023-03-01T14:33:28;14.10;;;9.57;;
17259;SDS011;8746;49.230;9.220;2023-03-01T14:36:07;15.53;;;11.67;;
17259;SDS011;8746;49.230;9.220;2023-03-01T14:38:36;17.73;;;11.87;;
17259;SDS011;8746;49.230;9.220;2023-03-01T14:41:09;15.07;;;11.77;;
17259;SDS011;8746;49.230;9.220;2023-03-01T14:43:38;16.27;;;10.70;;
17259;SDS011;8746;49.230;9.220;2023-03-01T14:46:24;18.77;;;11.57;;
17259;SDS011;8746;49.230;9.220;2023-03-01T14:49:04;15.93;;;12.17;;
17259;SDS011;8746;49.230;9.220;2023-03-01T14:51:56;15.40;;;11.57;;
17259;SDS011;8746;49.230;9.220;2023-03-01T14:57:14;14.33;;;11.37;;
17259;SDS011;8746;49.230;9.220;2023-03-01T14:59:42;18.50;;;12.70;;
17259;SDS011;8746;49.230;9.220;2023-03-01T15:02:08;15.33;;;11.50;;
17259;SDS011;8746;49.230;9.220;2023-03-01T15:04:41;17.57;;;11.67;;
17259;SDS011;8746;49.230;9.220;2023-03-01T15:07:11;16.00;;;11.57;;
17259;SDS011;8746;49.230;9.220;2023-03-01T15:09:39;16.80;;;12.13;;
17259;SDS011;8746;49.230;9.220;2023-03-01T15:14:52;17.63;;;11.50;;
17259;SDS011;8746;49.230;9.220;2023-03-01T15:19:59;13.73;;;10.50;;
17259;SDS011;8746;49.230;9.220;2023-03-01T15:22:27;15.57;;;11.53;;
17259;SDS011;8746;49.230;9.220;2023-03-01T15:24:52;15.80;;;11.23;;
17259;SDS011;8746;49.230;9.220;2023-03-01T15:27:20;15.77;;;11.80;;
17259;SDS011;8746;49.230;9.220;2023-03-01T15:29:58;15.87;;;11.63;;
17259;SDS011;8746;49.230;9.220;2023-03-01T15:34:55;15.10;;;11.47;;
17259;SDS011;8746;49.230;9.220;2023-03-01T15:40:20;13.10;;;10.93;;
17259;SDS011;8746;49.230;9.220;2023-03-01T15:42:56;13.37;;;9.57;;
17259;SDS011;8746;49.230;9.220;2023-03-01T15:45:25;15.10;;;11.73;;
17259;SDS011;8746;49.230;9.220;2023-03-01T15:50:39;15.60;;;11.80;;
17259;SDS011;8746;49.230;9.220;2023-03-01T15:53:10;15.23;;;10.90;;
17259;SDS011;8746;49.230;9.220;2023-03-01T15:55:39;16.97;;;11.63;;
17259;SDS011;8746;49.230;9.220;2023-03-01T16:00:59;14.67;;;10.70;;
17259;SDS011;8746;49.230;9.220;2023-03-01T16:03:24;14.30;;;11.43;;
17259;SDS011;8746;49.230;9.220;2023-03-01T16:05:50;18.17;;;11.67;;
17259;SDS011;8746;49.230;9.220;2023-03-01T16:08:16;15.50;;;11.73;;
17259;SDS011;8746;49.230;9.220;2023-03-01T16:10:42;17.07;;;12.30;;
17259;SDS011;8746;49.230;9.220;2023-03-01T16:13:08;16.07;;;11.77;;
17259;SDS011;8746;49.230;9.220;2023-03-01T16:15:35;14.93;;;11.53;;
17259;SDS011;8746;49.230;9.220;2023-03-01T16:18:01;18.37;;;11.33;;
17259;SDS011;8746;49.230;9.220;2023-03-01T16:20:27;16.80;;;11.93;;
17259;SDS011;8746;49.230;9.220;2023-03-01T16:22:54;18.07;;;12.53;;
17259;SDS011;8746;49.230;9.220;2023-03-01T16:25:20;14.00;;;11.63;;
17259;SDS011;8746;49.230;9.220;2023-03-01T16:27:47;17.33;;;12.17;;
17259;SDS011;8746;49.230;9.220;2023-03-01T16:30:14;17.63;;;12.33;;
17259;SDS011;8746;49.230;9.220;2023-03-01T16:32:42;17.27;;;12.10;;
17259;SDS011;8746;49.230;9.220;2023-03-01T16:35:09;17.67;;;12.43;;
17259;SDS011;8746;49.230;9.220;2023-03-01T16:37:37;15.80;;;12.33;;
17259;SDS011;8746;49.230;9.220;2023-03-01T16:40:02;16.20;;;12.00;;
17259;SDS011;8746;49.230;9.220;2023-03-01T16:42:32;17.70;;;11.70;;
17259;SDS011;8746;49.230;9.220;2023-03-01T16:45:01;17.23;;;11.87;;
17259;SDS011;8746;49.230;9.220;2023-03-01T16:47:28;15.40;;;11.23;;
17259;SDS011;8746;49.230;9.220;2023-03-01T16:49:54;17.23;;;12.17;;
17259;SDS011;8746;49.230;9.220;2023-03-01T16:52:20;16.90;;;12.30;;
17259;SDS011;8746;49.230;9.220;2023-03-01T16:54:46;17.57;;;12.50;;
17259;SDS011;8746;49.230;9.220;2023-03-01T16:57:12;15.70;;;11.93;;
17259;SDS011;8746;49.230;9.220;2023-03-01T16:59:37;16.10;;;12.27;;
17259;SDS011;8746;49.230;9.220;2023-03-01T17:02:03;17.73;;;11.63;;
17259;SDS011;8746;49.230;9.220;2023-03-01T17:04:31;16.27;;;11.87;;
17259;SDS011;8746;49.230;9.220;2023-03-01T17:06:57;18.47;;;12.27;;
17259;SDS011;8746;49.230;9.220;2023-03-01T17:09:22;16.20;;;11.67;;
17259;SDS011;8746;49.230;9.220;2023-03-01T17:11:48;17.23;;;11.13;;
17259;SDS011;8746;49.230;9.220;2023-03-01T17:14:14;16.33;;;11.53;;